Afton, Tennessee
Current Conditions -  °F | °C
As of 9:53 AM on Monday 24 Nov 2014 (Local Time) from KTRI Reporting Station
Clear Clear  
Wind Chill: 65°   Ceiling: Unl
Heat Index: 65°   Visibility: 10mi
Dew Point: 49°   Wind: 5mph
Humidity: 56%   Direction: 170°S
Pressure: 29.68"   Gusts: NA
Location:  36.19°N, 82.74°W
Report Text: KTRI 241453Z 17004KT 10SM CLR 18/09 A2968 RMK AO2 SLP031 T01830094 50004
Loading
Personal Weather Stations






























Interactive Weather Map New forecast layout! Learn more

10-Day Weather Forecast

Advertisements
Track Severe Weather on mobile